sensor_id;sensor_type;location;lat;lon;timestamp;P1;durP1;ratioP1;P2;durP2;ratioP2
84766;SDS011;74995;49.824;10.994;2023-12-29T00:04:12;1.50;;;1.20;;
84766;SDS011;74995;49.824;10.994;2023-12-29T00:06:38;2.47;;;1.10;;
84766;SDS011;74995;49.824;10.994;2023-12-29T00:09:04;3.70;;;1.60;;
84766;SDS011;74995;49.824;10.994;2023-12-29T00:13:54;1.77;;;1.20;;
84766;SDS011;74995;49.824;10.994;2023-12-29T00:16:19;1.87;;;1.37;;
84766;SDS011;74995;49.824;10.994;2023-12-29T00:21:10;1.70;;;1.43;;
84766;SDS011;74995;49.824;10.994;2023-12-29T00:26:00;1.70;;;1.20;;
84766;SDS011;74995;49.824;10.994;2023-12-29T00:30:51;1.20;;;0.90;;
84766;SDS011;74995;49.824;10.994;2023-12-29T00:35:42;1.37;;;0.90;;
84766;SDS011;74995;49.824;10.994;2023-12-29T00:40:33;1.30;;;1.10;;
84766;SDS011;74995;49.824;10.994;2023-12-29T00:45:25;2.17;;;1.05;;
84766;SDS011;74995;49.824;10.994;2023-12-29T00:50:16;2.17;;;0.90;;
84766;SDS011;74995;49.824;10.994;2023-12-29T00:55:07;1.20;;;0.95;;
84766;SDS011;74995;49.824;10.994;2023-12-29T00:59:59;1.73;;;1.03;;
84766;SDS011;74995;49.824;10.994;2023-12-29T01:02:25;2.15;;;0.85;;
84766;SDS011;74995;49.824;10.994;2023-12-29T01:07:15;2.50;;;1.10;;
84766;SDS011;74995;49.824;10.994;2023-12-29T01:12:06;1.40;;;0.70;;
84766;SDS011;74995;49.824;10.994;2023-12-29T01:16:57;1.70;;;0.80;;
84766;SDS011;74995;49.824;10.994;2023-12-29T01:21:47;1.07;;;0.70;;
84766;SDS011;74995;49.824;10.994;2023-12-29T01:26:38;1.33;;;0.83;;
84766;SDS011;74995;49.824;10.994;2023-12-29T01:29:04;1.38;;;0.77;;
84766;SDS011;74995;49.824;10.994;2023-12-29T01:31:31;1.30;;;0.90;;
84766;SDS011;74995;49.824;10.994;2023-12-29T01:36:22;1.13;;;0.80;;
84766;SDS011;74995;49.824;10.994;2023-12-29T01:41:13;1.33;;;0.90;;
84766;SDS011;74995;49.824;10.994;2023-12-29T01:46:28;2.05;;;1.05;;
84766;SDS011;74995;49.824;10.994;2023-12-29T01:48:54;1.27;;;0.95;;
84766;SDS011;74995;49.824;10.994;2023-12-29T01:53:52;1.85;;;1.30;;
84766;SDS011;74995;49.824;10.994;2023-12-29T01:56:20;1.92;;;1.10;;
84766;SDS011;74995;49.824;10.994;2023-12-29T02:01:13;1.58;;;1.05;;
84766;SDS011;74995;49.824;10.994;2023-12-29T02:03:40;1.67;;;1.15;;
84766;SDS011;74995;49.824;10.994;2023-12-29T02:08:31;1.77;;;1.17;;
84766;SDS011;74995;49.824;10.994;2023-12-29T02:10:57;1.33;;;1.00;;
84766;SDS011;74995;49.824;10.994;2023-12-29T02:15:49;1.40;;;0.83;;
84766;SDS011;74995;49.824;10.994;2023-12-29T02:18:17;2.83;;;1.10;;
84766;SDS011;74995;49.824;10.994;2023-12-29T02:20:43;1.40;;;1.00;;
84766;SDS011;74995;49.824;10.994;2023-12-29T02:25:35;1.40;;;1.08;;
84766;SDS011;74995;49.824;10.994;2023-12-29T02:31:03;1.92;;;0.88;;
84766;SDS011;74995;49.824;10.994;2023-12-29T02:33:34;1.75;;;0.98;;
84766;SDS011;74995;49.824;10.994;2023-12-29T02:36:03;1.30;;;0.80;;
84766;SDS011;74995;49.824;10.994;2023-12-29T02:38:30;1.98;;;1.20;;
84766;SDS011;74995;49.824;10.994;2023-12-29T02:43:21;1.73;;;1.00;;
84766;SDS011;74995;49.824;10.994;2023-12-29T02:48:11;1.97;;;1.20;;
84766;SDS011;74995;49.824;10.994;2023-12-29T02:53:02;2.00;;;0.90;;
84766;SDS011;74995;49.824;10.994;2023-12-29T02:55:29;1.48;;;1.00;;
84766;SDS011;74995;49.824;10.994;2023-12-29T03:00:19;1.50;;;0.97;;
84766;SDS011;74995;49.824;10.994;2023-12-29T03:02:45;1.60;;;1.13;;
84766;SDS011;74995;49.824;10.994;2023-12-29T03:05:10;1.88;;;1.00;;
84766;SDS011;74995;49.824;10.994;2023-12-29T03:10:01;1.38;;;0.90;;
84766;SDS011;74995;49.824;10.994;2023-12-29T03:14:52;1.87;;;1.17;;
84766;SDS011;74995;49.824;10.994;2023-12-29T03:19:42;0.87;;;0.80;;
84766;SDS011;74995;49.824;10.994;2023-12-29T03:24:33;1.70;;;1.07;;
84766;SDS011;74995;49.824;10.994;2023-12-29T03:26:59;1.98;;;1.00;;
84766;SDS011;74995;49.824;10.994;2023-12-29T03:31:50;3.33;;;1.53;;
84766;SDS011;74995;49.824;10.994;2023-12-29T03:34:15;1.97;;;1.00;;
84766;SDS011;74995;49.824;10.994;2023-12-29T03:39:05;1.60;;;1.20;;
84766;SDS011;74995;49.824;10.994;2023-12-29T03:43:56;1.67;;;0.90;;
84766;SDS011;74995;49.824;10.994;2023-12-29T03:48:47;1.80;;;1.10;;
84766;SDS011;74995;49.824;10.994;2023-12-29T03:51:13;1.33;;;1.00;;
84766;SDS011;74995;49.824;10.994;2023-12-29T03:53:39;2.08;;;1.10;;
84766;SDS011;74995;49.824;10.994;2023-12-29T03:58:31;1.65;;;1.05;;
84766;SDS011;74995;49.824;10.994;2023-12-29T04:03:22;1.73;;;1.57;;
84766;SDS011;74995;49.824;10.994;2023-12-29T04:05:47;1.53;;;1.00;;
84766;SDS011;74995;49.824;10.994;2023-12-29T04:10:38;1.67;;;1.00;;
84766;SDS011;74995;49.824;10.994;2023-12-29T04:15:28;1.90;;;1.00;;
84766;SDS011;74995;49.824;10.994;2023-12-29T04:20:19;1.63;;;1.10;;
84766;SDS011;74995;49.824;10.994;2023-12-29T04:25:10;1.60;;;1.10;;
84766;SDS011;74995;49.824;10.994;2023-12-29T04:30:01;2.13;;;1.30;;
84766;SDS011;74995;49.824;10.994;2023-12-29T04:32:28;1.63;;;1.27;;
84766;SDS011;74995;49.824;10.994;2023-12-29T04:37:18;1.37;;;0.80;;
84766;SDS011;74995;49.824;10.994;2023-12-29T04:42:08;1.40;;;1.10;;
84766;SDS011;74995;49.824;10.994;2023-12-29T04:46:59;3.50;;;1.20;;
84766;SDS011;74995;49.824;10.994;2023-12-29T04:51:49;1.47;;;1.10;;
84766;SDS011;74995;49.824;10.994;2023-12-29T04:56:40;1.95;;;1.20;;
84766;SDS011;74995;49.824;10.994;2023-12-29T05:01:30;1.20;;;1.00;;
84766;SDS011;74995;49.824;10.994;2023-12-29T05:06:21;1.60;;;1.20;;
84766;SDS011;74995;49.824;10.994;2023-12-29T05:11:11;1.83;;;1.30;;
84766;SDS011;74995;49.824;10.994;2023-12-29T05:13:37;2.20;;;1.40;;
84766;SDS011;74995;49.824;10.994;2023-12-29T05:18:28;2.28;;;1.20;;
84766;SDS011;74995;49.824;10.994;2023-12-29T05:23:20;2.90;;;1.30;;
84766;SDS011;74995;49.824;10.994;2023-12-29T05:25:45;2.28;;;1.23;;
84766;SDS011;74995;49.824;10.994;2023-12-29T05:30:36;1.43;;;1.17;;
84766;SDS011;74995;49.824;10.994;2023-12-29T05:35:27;3.47;;;1.33;;
84766;SDS011;74995;49.824;10.994;2023-12-29T05:40:17;2.03;;;1.30;;
84766;SDS011;74995;49.824;10.994;2023-12-29T05:45:08;2.30;;;1.40;;
84766;SDS011;74995;49.824;10.994;2023-12-29T05:47:33;3.25;;;1.30;;
84766;SDS011;74995;49.824;10.994;2023-12-29T05:52:24;1.63;;;1.10;;
84766;SDS011;74995;49.824;10.994;2023-12-29T05:54:49;1.80;;;1.10;;
84766;SDS011;74995;49.824;10.994;2023-12-29T05:59:40;2.92;;;1.20;;
84766;SDS011;74995;49.824;10.994;2023-12-29T06:04:30;1.63;;;1.10;;
84766;SDS011;74995;49.824;10.994;2023-12-29T06:06:56;1.38;;;1.08;;
84766;SDS011;74995;49.824;10.994;2023-12-29T06:11:46;1.80;;;1.03;;
84766;SDS011;74995;49.824;10.994;2023-12-29T06:16:37;2.03;;;1.23;;
84766;SDS011;74995;49.824;10.994;2023-12-29T06:19:02;1.93;;;1.47;;
84766;SDS011;74995;49.824;10.994;2023-12-29T06:21:27;1.83;;;1.30;;
84766;SDS011;74995;49.824;10.994;2023-12-29T06:26:18;3.70;;;1.40;;
84766;SDS011;74995;49.824;10.994;2023-12-29T06:28:45;2.25;;;1.35;;
84766;SDS011;74995;49.824;10.994;2023-12-29T06:33:36;1.25;;;0.98;;
84766;SDS011;74995;49.824;10.994;2023-12-29T06:36:05;3.47;;;1.40;;
84766;SDS011;74995;49.824;10.994;2023-12-29T06:40:56;1.92;;;1.33;;
84766;SDS011;74995;49.824;10.994;2023-12-29T06:45:47;2.77;;;1.40;;
84766;SDS011;74995;49.824;10.994;2023-12-29T06:48:12;3.03;;;1.33;;
84766;SDS011;74995;49.824;10.994;2023-12-29T06:53:03;2.43;;;1.40;;
84766;SDS011;74995;49.824;10.994;2023-12-29T06:57:53;1.90;;;1.50;;
84766;SDS011;74995;49.824;10.994;2023-12-29T07:02:44;1.50;;;1.03;;
84766;SDS011;74995;49.824;10.994;2023-12-29T07:05:09;1.77;;;1.17;;
84766;SDS011;74995;49.824;10.994;2023-12-29T07:07:34;2.92;;;0.93;;
84766;SDS011;74995;49.824;10.994;2023-12-29T07:12:25;1.47;;;0.93;;
84766;SDS011;74995;49.824;10.994;2023-12-29T07:17:16;1.23;;;1.10;;
84766;SDS011;74995;49.824;10.994;2023-12-29T07:19:41;2.00;;;1.10;;
84766;SDS011;74995;49.824;10.994;2023-12-29T07:22:07;2.13;;;1.10;;
84766;SDS011;74995;49.824;10.994;2023-12-29T07:26:58;1.90;;;1.40;;
84766;SDS011;74995;49.824;10.994;2023-12-29T07:29:23;1.20;;;1.00;;
84766;SDS011;74995;49.824;10.994;2023-12-29T07:34:14;2.30;;;1.42;;
84766;SDS011;74995;49.824;10.994;2023-12-29T07:39:05;1.30;;;0.98;;
84766;SDS011;74995;49.824;10.994;2023-12-29T07:43:56;3.23;;;1.50;;
84766;SDS011;74995;49.824;10.994;2023-12-29T07:46:27;2.77;;;1.60;;
84766;SDS011;74995;49.824;10.994;2023-12-29T07:48:52;1.80;;;1.10;;
84766;SDS011;74995;49.824;10.994;2023-12-29T07:53:43;2.17;;;1.40;;
84766;SDS011;74995;49.824;10.994;2023-12-29T07:58:35;1.42;;;1.30;;
84766;SDS011;74995;49.824;10.994;2023-12-29T08:03:25;2.97;;;1.50;;
84766;SDS011;74995;49.824;10.994;2023-12-29T08:08:17;3.45;;;1.70;;
84766;SDS011;74995;49.824;10.994;2023-12-29T08:13:07;3.78;;;1.50;;
84766;SDS011;74995;49.824;10.994;2023-12-29T08:15:34;2.20;;;1.30;;
84766;SDS011;74995;49.824;10.994;2023-12-29T08:20:25;2.30;;;1.40;;
84766;SDS011;74995;49.824;10.994;2023-12-29T08:22:50;2.72;;;1.23;;
84766;SDS011;74995;49.824;10.994;2023-12-29T08:25:16;2.30;;;1.52;;
84766;SDS011;74995;49.824;10.994;2023-12-29T08:30:07;2.17;;;1.33;;
84766;SDS011;74995;49.824;10.994;2023-12-29T08:32:33;1.95;;;1.40;;
84766;SDS011;74995;49.824;10.994;2023-12-29T08:37:23;2.15;;;1.60;;
84766;SDS011;74995;49.824;10.994;2023-12-29T08:39:49;2.15;;;1.40;;
84766;SDS011;74995;49.824;10.994;2023-12-29T08:44:40;2.20;;;1.67;;
84766;SDS011;74995;49.824;10.994;2023-12-29T08:49:33;3.85;;;1.58;;
84766;SDS011;74995;49.824;10.994;2023-12-29T08:51:59;2.10;;;1.55;;
84766;SDS011;74995;49.824;10.994;2023-12-29T08:56:50;2.60;;;1.67;;
84766;SDS011;74995;49.824;10.994;2023-12-29T09:01:40;4.07;;;2.20;;
84766;SDS011;74995;49.824;10.994;2023-12-29T09:04:06;5.43;;;2.27;;
84766;SDS011;74995;49.824;10.994;2023-12-29T09:06:31;3.33;;;2.10;;
84766;SDS011;74995;49.824;10.994;2023-12-29T09:11:22;3.63;;;2.23;;
84766;SDS011;74995;49.824;10.994;2023-12-29T09:13:47;4.82;;;1.85;;
84766;SDS011;74995;49.824;10.994;2023-12-29T09:18:37;3.03;;;2.00;;
84766;SDS011;74995;49.824;10.994;2023-12-29T09:23:28;3.17;;;2.00;;
84766;SDS011;74995;49.824;10.994;2023-12-29T09:28:18;3.60;;;1.70;;
84766;SDS011;74995;49.824;10.994;2023-12-29T09:33:09;3.23;;;1.87;;
84766;SDS011;74995;49.824;10.994;2023-12-29T09:35:37;3.55;;;2.13;;
84766;SDS011;74995;49.824;10.994;2023-12-29T09:40:29;3.72;;;1.63;;
84766;SDS011;74995;49.824;10.994;2023-12-29T09:45:22;1.50;;;1.15;;
84766;SDS011;74995;49.824;10.994;2023-12-29T09:47:50;2.55;;;1.30;;
84766;SDS011;74995;49.824;10.994;2023-12-29T09:50:17;2.38;;;1.73;;
84766;SDS011;74995;49.824;10.994;2023-12-29T09:55:09;2.40;;;1.48;;
84766;SDS011;74995;49.824;10.994;2023-12-29T09:57:39;1.52;;;1.10;;
84766;SDS011;74995;49.824;10.994;2023-12-29T10:00:09;2.15;;;1.40;;
84766;SDS011;74995;49.824;10.994;2023-12-29T10:02:37;2.15;;;1.20;;
84766;SDS011;74995;49.824;10.994;2023-12-29T10:05:03;2.22;;;1.23;;
84766;SDS011;74995;49.824;10.994;2023-12-29T10:07:29;1.25;;;0.98;;
84766;SDS011;74995;49.824;10.994;2023-12-29T10:10:00;2.85;;;1.48;;
84766;SDS011;74995;49.824;10.994;2023-12-29T10:12:27;1.80;;;1.33;;
84766;SDS011;74995;49.824;10.994;2023-12-29T10:23:32;1.42;;;1.13;;
84766;SDS011;74995;49.824;10.994;2023-12-29T10:26:00;2.03;;;1.08;;
84766;SDS011;74995;49.824;10.994;2023-12-29T10:30:50;1.40;;;0.90;;
84766;SDS011;74995;49.824;10.994;2023-12-29T10:36:04;1.10;;;1.00;;
84766;SDS011;74995;49.824;10.994;2023-12-29T10:38:32;1.95;;;1.10;;
84766;SDS011;74995;49.824;10.994;2023-12-29T10:43:42;1.27;;;0.80;;
84766;SDS011;74995;49.824;10.994;2023-12-29T10:46:09;2.38;;;1.10;;
84766;SDS011;74995;49.824;10.994;2023-12-29T10:48:36;2.13;;;0.93;;
84766;SDS011;74995;49.824;10.994;2023-12-29T10:51:02;1.60;;;0.90;;
84766;SDS011;74995;49.824;10.994;2023-12-29T10:53:29;1.83;;;0.98;;
84766;SDS011;74995;49.824;10.994;2023-12-29T10:55:58;1.52;;;0.80;;
84766;SDS011;74995;49.824;10.994;2023-12-29T10:58:24;1.00;;;0.60;;
84766;SDS011;74995;49.824;10.994;2023-12-29T11:00:52;1.60;;;0.80;;
84766;SDS011;74995;49.824;10.994;2023-12-29T11:03:19;1.30;;;0.85;;
84766;SDS011;74995;49.824;10.994;2023-12-29T11:08:16;1.43;;;0.93;;
84766;SDS011;74995;49.824;10.994;2023-12-29T11:10:45;1.17;;;0.88;;
84766;SDS011;74995;49.824;10.994;2023-12-29T11:13:12;1.40;;;0.80;;
84766;SDS011;74995;49.824;10.994;2023-12-29T11:15:44;1.70;;;1.00;;
84766;SDS011;74995;49.824;10.994;2023-12-29T11:18:17;0.98;;;0.63;;
84766;SDS011;74995;49.824;10.994;2023-12-29T11:20:43;2.13;;;1.17;;
84766;SDS011;74995;49.824;10.994;2023-12-29T11:23:10;2.45;;;1.02;;
84766;SDS011;74995;49.824;10.994;2023-12-29T11:25:39;1.45;;;0.82;;
84766;SDS011;74995;49.824;10.994;2023-12-29T11:30:34;1.65;;;1.23;;
84766;SDS011;74995;49.824;10.994;2023-12-29T11:35:50;1.50;;;1.13;;
84766;SDS011;74995;49.824;10.994;2023-12-29T11:44:31;1.38;;;1.08;;
84766;SDS011;74995;49.824;10.994;2023-12-29T11:46:58;1.45;;;1.00;;
84766;SDS011;74995;49.824;10.994;2023-12-29T11:49:24;2.20;;;0.80;;
84766;SDS011;74995;49.824;10.994;2023-12-29T11:54:25;1.70;;;1.40;;
84766;SDS011;74995;49.824;10.994;2023-12-29T11:56:52;1.30;;;0.90;;
84766;SDS011;74995;49.824;10.994;2023-12-29T11:59:19;1.35;;;0.80;;
84766;SDS011;74995;49.824;10.994;2023-12-29T12:01:49;1.48;;;0.85;;
84766;SDS011;74995;49.824;10.994;2023-12-29T12:07:07;1.38;;;0.93;;
84766;SDS011;74995;49.824;10.994;2023-12-29T12:12:45;1.42;;;0.88;;
84766;SDS011;74995;49.824;10.994;2023-12-29T12:17:51;1.33;;;0.80;;
84766;SDS011;74995;49.824;10.994;2023-12-29T12:22:42;0.90;;;0.50;;
84766;SDS011;74995;49.824;10.994;2023-12-29T12:25:09;2.50;;;1.35;;
84766;SDS011;74995;49.824;10.994;2023-12-29T12:27:37;2.10;;;0.80;;
84766;SDS011;74995;49.824;10.994;2023-12-29T12:30:03;0.93;;;0.60;;
84766;SDS011;74995;49.824;10.994;2023-12-29T12:34:55;1.92;;;0.80;;
84766;SDS011;74995;49.824;10.994;2023-12-29T12:37:28;1.27;;;0.88;;
84766;SDS011;74995;49.824;10.994;2023-12-29T12:39:54;0.93;;;0.70;;
84766;SDS011;74995;49.824;10.994;2023-12-29T12:42:21;1.08;;;0.80;;
84766;SDS011;74995;49.824;10.994;2023-12-29T12:44:48;1.00;;;0.85;;
84766;SDS011;74995;49.824;10.994;2023-12-29T12:47:19;1.73;;;0.75;;
84766;SDS011;74995;49.824;10.994;2023-12-29T12:49:52;1.02;;;0.77;;
84766;SDS011;74995;49.824;10.994;2023-12-29T12:54:43;1.15;;;0.65;;
84766;SDS011;74995;49.824;10.994;2023-12-29T12:59:33;0.85;;;0.60;;
84766;SDS011;74995;49.824;10.994;2023-12-29T13:04:24;0.70;;;0.70;;
84766;SDS011;74995;49.824;10.994;2023-12-29T13:09:15;2.25;;;0.75;;
84766;SDS011;74995;49.824;10.994;2023-12-29T13:11:44;1.38;;;0.75;;
84766;SDS011;74995;49.824;10.994;2023-12-29T13:16:44;1.35;;;0.88;;
84766;SDS011;74995;49.824;10.994;2023-12-29T13:21:40;1.25;;;0.88;;
84766;SDS011;74995;49.824;10.994;2023-12-29T13:26:32;0.60;;;0.60;;
84766;SDS011;74995;49.824;10.994;2023-12-29T13:31:22;5.00;;;2.50;;
84766;SDS011;74995;49.824;10.994;2023-12-29T13:36:35;4.70;;;2.65;;
84766;SDS011;74995;49.824;10.994;2023-12-29T13:39:09;3.63;;;2.53;;
84766;SDS011;74995;49.824;10.994;2023-12-29T13:41:44;3.80;;;1.70;;
84766;SDS011;74995;49.824;10.994;2023-12-29T13:46:35;2.10;;;1.10;;
84766;SDS011;74995;49.824;10.994;2023-12-29T13:49:02;3.40;;;1.52;;
84766;SDS011;74995;49.824;10.994;2023-12-29T13:51:30;3.15;;;1.33;;
84766;SDS011;74995;49.824;10.994;2023-12-29T13:56:28;3.45;;;1.50;;
84766;SDS011;74995;49.824;10.994;2023-12-29T14:01:19;6.40;;;3.40;;
84766;SDS011;74995;49.824;10.994;2023-12-29T14:06:21;5.18;;;2.78;;
84766;SDS011;74995;49.824;10.994;2023-12-29T14:08:51;4.32;;;2.17;;
84766;SDS011;74995;49.824;10.994;2023-12-29T14:13:43;4.20;;;1.73;;
84766;SDS011;74995;49.824;10.994;2023-12-29T14:16:08;3.20;;;1.63;;
84766;SDS011;74995;49.824;10.994;2023-12-29T14:21:29;7.10;;;1.70;;
84766;SDS011;74995;49.824;10.994;2023-12-29T14:24:14;6.65;;;1.38;;
84766;SDS011;74995;49.824;10.994;2023-12-29T14:29:24;7.93;;;2.45;;
84766;SDS011;74995;49.824;10.994;2023-12-29T14:31:50;4.75;;;2.70;;
84766;SDS011;74995;49.824;10.994;2023-12-29T14:36:42;6.20;;;2.20;;
84766;SDS011;74995;49.824;10.994;2023-12-29T14:41:35;4.15;;;2.33;;
84766;SDS011;74995;49.824;10.994;2023-12-29T14:46:25;3.53;;;2.13;;
84766;SDS011;74995;49.824;10.994;2023-12-29T14:51:17;6.20;;;2.90;;
84766;SDS011;74995;49.824;10.994;2023-12-29T14:56:08;6.57;;;2.78;;
84766;SDS011;74995;49.824;10.994;2023-12-29T15:01:01;5.53;;;2.63;;
84766;SDS011;74995;49.824;10.994;2023-12-29T15:03:27;3.55;;;2.05;;
84766;SDS011;74995;49.824;10.994;2023-12-29T15:08:18;4.57;;;2.47;;
84766;SDS011;74995;49.824;10.994;2023-12-29T15:13:09;5.95;;;2.72;;
84766;SDS011;74995;49.824;10.994;2023-12-29T15:18:00;3.30;;;2.23;;
84766;SDS011;74995;49.824;10.994;2023-12-29T15:22:51;4.57;;;2.07;;
84766;SDS011;74995;49.824;10.994;2023-12-29T15:25:20;4.78;;;2.55;;
84766;SDS011;74995;49.824;10.994;2023-12-29T15:30:10;5.00;;;2.50;;
84766;SDS011;74995;49.824;10.994;2023-12-29T15:32:36;3.45;;;1.80;;
84766;SDS011;74995;49.824;10.994;2023-12-29T15:37:27;2.83;;;1.67;;
84766;SDS011;74995;49.824;10.994;2023-12-29T15:42:17;3.67;;;2.00;;
84766;SDS011;74995;49.824;10.994;2023-12-29T15:47:08;3.23;;;2.03;;
84766;SDS011;74995;49.824;10.994;2023-12-29T15:52:01;2.50;;;1.40;;
84766;SDS011;74995;49.824;10.994;2023-12-29T15:56:53;3.88;;;2.33;;
84766;SDS011;74995;49.824;10.994;2023-12-29T16:01:44;2.03;;;1.20;;
84766;SDS011;74995;49.824;10.994;2023-12-29T16:04:10;2.25;;;1.65;;
84766;SDS011;74995;49.824;10.994;2023-12-29T16:09:02;2.72;;;1.63;;
84766;SDS011;74995;49.824;10.994;2023-12-29T16:11:29;3.42;;;1.25;;
84766;SDS011;74995;49.824;10.994;2023-12-29T16:16:21;1.80;;;1.10;;
84766;SDS011;74995;49.824;10.994;2023-12-29T16:18:52;2.03;;;1.38;;
84766;SDS011;74995;49.824;10.994;2023-12-29T16:23:42;2.97;;;1.37;;
84766;SDS011;74995;49.824;10.994;2023-12-29T16:28:34;3.22;;;1.45;;
84766;SDS011;74995;49.824;10.994;2023-12-29T16:31:06;2.42;;;1.50;;
84766;SDS011;74995;49.824;10.994;2023-12-29T16:33:33;3.15;;;1.60;;
84766;SDS011;74995;49.824;10.994;2023-12-29T16:36:05;3.22;;;1.45;;
84766;SDS011;74995;49.824;10.994;2023-12-29T16:38:34;2.28;;;1.40;;
84766;SDS011;74995;49.824;10.994;2023-12-29T16:43:25;2.50;;;1.40;;
84766;SDS011;74995;49.824;10.994;2023-12-29T16:48:15;2.00;;;1.10;;
84766;SDS011;74995;49.824;10.994;2023-12-29T16:53:06;3.10;;;1.50;;
84766;SDS011;74995;49.824;10.994;2023-12-29T16:57:56;4.20;;;1.93;;
84766;SDS011;74995;49.824;10.994;2023-12-29T17:02:46;4.07;;;1.53;;
84766;SDS011;74995;49.824;10.994;2023-12-29T17:07:37;4.30;;;2.03;;
84766;SDS011;74995;49.824;10.994;2023-12-29T17:12:28;2.35;;;1.27;;
84766;SDS011;74995;49.824;10.994;2023-12-29T17:17:18;2.50;;;1.50;;
84766;SDS011;74995;49.824;10.994;2023-12-29T17:22:09;3.27;;;2.00;;
84766;SDS011;74995;49.824;10.994;2023-12-29T17:26:59;2.47;;;1.60;;
84766;SDS011;74995;49.824;10.994;2023-12-29T17:31:51;5.25;;;1.50;;
84766;SDS011;74995;49.824;10.994;2023-12-29T17:36:43;2.30;;;1.63;;
84766;SDS011;74995;49.824;10.994;2023-12-29T17:39:09;2.97;;;1.70;;
84766;SDS011;74995;49.824;10.994;2023-12-29T17:41:34;5.18;;;2.45;;
84766;SDS011;74995;49.824;10.994;2023-12-29T17:44:00;4.75;;;2.33;;
84766;SDS011;74995;49.824;10.994;2023-12-29T17:46:26;2.58;;;1.70;;
84766;SDS011;74995;49.824;10.994;2023-12-29T17:51:20;2.27;;;1.53;;
84766;SDS011;74995;49.824;10.994;2023-12-29T17:53:46;3.28;;;1.95;;
84766;SDS011;74995;49.824;10.994;2023-12-29T17:56:13;2.47;;;1.83;;
84766;SDS011;74995;49.824;10.994;2023-12-29T18:01:03;2.63;;;1.70;;
84766;SDS011;74995;49.824;10.994;2023-12-29T18:05:54;3.20;;;1.90;;
84766;SDS011;74995;49.824;10.994;2023-12-29T18:08:21;3.00;;;2.38;;
84766;SDS011;74995;49.824;10.994;2023-12-29T18:13:12;2.65;;;1.50;;
84766;SDS011;74995;49.824;10.994;2023-12-29T18:15:40;2.65;;;1.50;;
84766;SDS011;74995;49.824;10.994;2023-12-29T18:20:30;2.33;;;1.60;;
84766;SDS011;74995;49.824;10.994;2023-12-29T18:25:21;2.10;;;1.30;;
84766;SDS011;74995;49.824;10.994;2023-12-29T18:30:12;2.63;;;1.43;;
84766;SDS011;74995;49.824;10.994;2023-12-29T18:32:38;1.65;;;1.20;;
84766;SDS011;74995;49.824;10.994;2023-12-29T18:37:29;2.15;;;1.27;;
84766;SDS011;74995;49.824;10.994;2023-12-29T18:39:56;1.98;;;1.25;;
84766;SDS011;74995;49.824;10.994;2023-12-29T18:44:46;2.17;;;1.53;;
84766;SDS011;74995;49.824;10.994;2023-12-29T18:49:37;2.03;;;1.33;;
84766;SDS011;74995;49.824;10.994;2023-12-29T18:54:28;2.08;;;1.30;;
84766;SDS011;74995;49.824;10.994;2023-12-29T18:56:57;2.10;;;1.10;;
84766;SDS011;74995;49.824;10.994;2023-12-29T19:01:48;2.27;;;1.17;;
84766;SDS011;74995;49.824;10.994;2023-12-29T19:06:40;1.52;;;1.17;;
84766;SDS011;74995;49.824;10.994;2023-12-29T19:11:32;1.63;;;1.50;;
84766;SDS011;74995;49.824;10.994;2023-12-29T19:16:23;1.83;;;1.30;;
84766;SDS011;74995;49.824;10.994;2023-12-29T19:21:15;1.40;;;1.00;;
84766;SDS011;74995;49.824;10.994;2023-12-29T19:26:06;2.30;;;1.10;;
84766;SDS011;74995;49.824;10.994;2023-12-29T19:30:56;1.83;;;1.07;;
84766;SDS011;74995;49.824;10.994;2023-12-29T19:35:47;2.50;;;1.13;;
84766;SDS011;74995;49.824;10.994;2023-12-29T19:40:38;2.40;;;1.20;;
84766;SDS011;74995;49.824;10.994;2023-12-29T19:45:28;1.33;;;0.97;;
84766;SDS011;74995;49.824;10.994;2023-12-29T19:47:55;1.95;;;1.10;;
84766;SDS011;74995;49.824;10.994;2023-12-29T19:52:46;1.67;;;1.00;;
84766;SDS011;74995;49.824;10.994;2023-12-29T19:55:11;1.60;;;1.17;;
84766;SDS011;74995;49.824;10.994;2023-12-29T20:00:02;4.27;;;2.43;;
84766;SDS011;74995;49.824;10.994;2023-12-29T20:02:28;3.78;;;1.63;;
84766;SDS011;74995;49.824;10.994;2023-12-29T20:07:19;3.13;;;2.10;;
84766;SDS011;74995;49.824;10.994;2023-12-29T20:12:11;2.67;;;1.90;;
84766;SDS011;74995;49.824;10.994;2023-12-29T20:14:37;3.45;;;1.90;;
84766;SDS011;74995;49.824;10.994;2023-12-29T20:19:28;3.22;;;1.73;;
84766;SDS011;74995;49.824;10.994;2023-12-29T20:24:18;2.10;;;1.60;;
84766;SDS011;74995;49.824;10.994;2023-12-29T20:29:09;2.03;;;1.00;;
84766;SDS011;74995;49.824;10.994;2023-12-29T20:33:59;1.80;;;1.20;;
84766;SDS011;74995;49.824;10.994;2023-12-29T20:36:25;1.60;;;1.30;;
84766;SDS011;74995;49.824;10.994;2023-12-29T20:38:51;1.75;;;1.10;;
84766;SDS011;74995;49.824;10.994;2023-12-29T20:41:18;2.47;;;1.05;;
84766;SDS011;74995;49.824;10.994;2023-12-29T20:43:45;1.83;;;1.20;;
84766;SDS011;74995;49.824;10.994;2023-12-29T20:46:16;1.92;;;1.23;;
84766;SDS011;74995;49.824;10.994;2023-12-29T20:48:45;2.90;;;1.60;;
84766;SDS011;74995;49.824;10.994;2023-12-29T20:51:14;1.88;;;1.20;;
84766;SDS011;74995;49.824;10.994;2023-12-29T20:53:44;2.50;;;1.30;;
84766;SDS011;74995;49.824;10.994;2023-12-29T20:56:15;2.00;;;1.10;;
84766;SDS011;74995;49.824;10.994;2023-12-29T20:58:41;1.80;;;1.00;;
84766;SDS011;74995;49.824;10.994;2023-12-29T21:03:33;1.30;;;1.10;;
84766;SDS011;74995;49.824;10.994;2023-12-29T21:08:24;4.90;;;1.37;;
84766;SDS011;74995;49.824;10.994;2023-12-29T21:13:17;0.88;;;0.73;;
84766;SDS011;74995;49.824;10.994;2023-12-29T21:18:07;1.87;;;1.10;;
84766;SDS011;74995;49.824;10.994;2023-12-29T21:22:58;1.58;;;1.08;;
84766;SDS011;74995;49.824;10.994;2023-12-29T21:27:48;1.40;;;0.80;;
84766;SDS011;74995;49.824;10.994;2023-12-29T21:32:41;1.92;;;0.80;;
84766;SDS011;74995;49.824;10.994;2023-12-29T21:35:08;1.98;;;1.20;;
84766;SDS011;74995;49.824;10.994;2023-12-29T21:39:58;2.90;;;0.90;;
84766;SDS011;74995;49.824;10.994;2023-12-29T21:44:50;1.20;;;0.80;;
84766;SDS011;74995;49.824;10.994;2023-12-29T21:47:16;1.55;;;1.05;;
84766;SDS011;74995;49.824;10.994;2023-12-29T21:49:42;1.20;;;0.75;;
84766;SDS011;74995;49.824;10.994;2023-12-29T21:52:08;2.23;;;1.00;;
84766;SDS011;74995;49.824;10.994;2023-12-29T21:56:59;1.98;;;0.80;;
84766;SDS011;74995;49.824;10.994;2023-12-29T22:01:50;1.92;;;0.98;;
84766;SDS011;74995;49.824;10.994;2023-12-29T22:06:42;0.88;;;0.60;;
84766;SDS011;74995;49.824;10.994;2023-12-29T22:11:34;1.00;;;0.75;;
84766;SDS011;74995;49.824;10.994;2023-12-29T22:16:25;1.30;;;0.80;;
84766;SDS011;74995;49.824;10.994;2023-12-29T22:21:19;1.73;;;0.85;;
84766;SDS011;74995;49.824;10.994;2023-12-29T22:23:45;2.25;;;1.00;;
84766;SDS011;74995;49.824;10.994;2023-12-29T22:28:37;2.42;;;1.00;;
84766;SDS011;74995;49.824;10.994;2023-12-29T22:33:28;1.30;;;1.17;;
84766;SDS011;74995;49.824;10.994;2023-12-29T22:38:19;2.00;;;1.03;;
84766;SDS011;74995;49.824;10.994;2023-12-29T22:43:10;2.20;;;1.10;;
84766;SDS011;74995;49.824;10.994;2023-12-29T22:48:00;1.30;;;0.70;;
84766;SDS011;74995;49.824;10.994;2023-12-29T22:52:51;1.90;;;1.00;;
84766;SDS011;74995;49.824;10.994;2023-12-29T22:55:16;1.30;;;0.90;;
84766;SDS011;74995;49.824;10.994;2023-12-29T23:00:06;4.17;;;1.30;;
84766;SDS011;74995;49.824;10.994;2023-12-29T23:02:36;1.45;;;0.65;;
84766;SDS011;74995;49.824;10.994;2023-12-29T23:07:27;1.73;;;0.70;;
84766;SDS011;74995;49.824;10.994;2023-12-29T23:12:18;1.53;;;0.93;;
84766;SDS011;74995;49.824;10.994;2023-12-29T23:17:08;1.50;;;0.77;;
84766;SDS011;74995;49.824;10.994;2023-12-29T23:19:35;1.00;;;0.60;;